createdAt,value
2023-03-19T00:00:27.998Z,3.88
2023-03-19T00:02:55.362Z,3.88
2023-03-19T00:05:22.623Z,4.47
2023-03-19T00:07:49.567Z,3.15
2023-03-19T00:10:16.585Z,4.93
2023-03-19T00:12:43.517Z,4.43
2023-03-19T00:15:14.332Z,4.68
2023-03-19T00:17:44.456Z,4.05
2023-03-19T00:20:12.249Z,5.00
2023-03-19T00:22:40.073Z,4.30
2023-03-19T00:25:10.379Z,5.07
2023-03-19T00:27:38.203Z,5.55
2023-03-19T00:30:06.744Z,4.68
2023-03-19T00:32:34.349Z,7.15
2023-03-19T00:35:01.510Z,5.55
2023-03-19T00:37:29.421Z,4.75
2023-03-19T00:39:56.477Z,5.70
2023-03-19T00:42:23.621Z,5.25
2023-03-19T00:44:50.742Z,5.50
2023-03-19T00:47:17.795Z,5.22
2023-03-19T00:49:44.852Z,4.43
2023-03-19T00:52:11.857Z,5.63
2023-03-19T00:54:40.090Z,4.45
2023-03-19T00:57:08.070Z,4.45
2023-03-19T00:59:35.102Z,4.43
2023-03-19T01:02:03.003Z,3.75
2023-03-19T01:04:30.011Z,4.78
2023-03-19T01:06:58.417Z,4.63
2023-03-19T01:09:26.702Z,4.13
2023-03-19T01:11:56.968Z,3.92
2023-03-19T01:14:23.960Z,4.60
2023-03-19T01:16:51.188Z,6.55
2023-03-19T01:19:18.213Z,3.63
2023-03-19T01:21:46.626Z,3.95
2023-03-19T01:24:17.847Z,5.07
2023-03-19T01:26:47.479Z,3.85
2023-03-19T01:29:30.472Z,5.35
2023-03-19T01:32:00.734Z,4.68
2023-03-19T01:34:53.980Z,3.63
2023-03-19T01:37:21.299Z,4.03
2023-03-19T01:39:48.776Z,3.65
2023-03-19T01:42:15.785Z,5.10
2023-03-19T01:45:03.376Z,4.80
2023-03-19T01:47:41.080Z,5.97
2023-03-19T01:50:25.045Z,4.00
2023-03-19T01:53:13.460Z,7.20
2023-03-19T01:55:49.981Z,6.32
2023-03-19T01:58:33.075Z,7.97
2023-03-19T02:01:20.703Z,9.18
2023-03-19T02:03:51.578Z,9.07
2023-03-19T02:06:24.182Z,6.30
2023-03-19T02:08:51.574Z,4.70
2023-03-19T02:11:18.588Z,5.50
2023-03-19T02:13:46.230Z,5.97
2023-03-19T02:16:13.552Z,6.65
2023-03-19T02:18:41.681Z,4.72
2023-03-19T02:21:13.724Z,4.55
2023-03-19T02:24:02.452Z,5.10
2023-03-19T02:26:44.440Z,4.43
2023-03-19T02:29:11.468Z,4.57
2023-03-19T02:31:38.643Z,3.40
2023-03-19T02:34:07.727Z,5.10
2023-03-19T02:36:42.442Z,3.95
2023-03-19T02:39:14.194Z,6.13
2023-03-19T02:41:41.606Z,6.70
2023-03-19T02:44:08.725Z,6.10
2023-03-19T02:46:35.816Z,4.45
2023-03-19T02:49:02.840Z,6.03
2023-03-19T02:51:29.989Z,4.70
2023-03-19T02:53:56.973Z,4.47
2023-03-19T02:56:23.818Z,5.78
2023-03-19T02:58:50.817Z,3.92
2023-03-19T03:01:19.223Z,5.78
2023-03-19T03:03:46.617Z,5.45
2023-03-19T03:06:14.261Z,4.28
2023-03-19T03:08:41.372Z,5.07
2023-03-19T03:11:08.475Z,4.47
2023-03-19T03:13:35.949Z,4.57
2023-03-19T03:16:03.120Z,7.05
2023-03-19T03:18:30.252Z,3.58
2023-03-19T03:20:57.393Z,3.90
2023-03-19T03:23:24.396Z,4.05
2023-03-19T03:25:52.168Z,4.40
2023-03-19T03:28:19.274Z,4.28
2023-03-19T03:30:47.139Z,5.97
2023-03-19T03:33:14.175Z,6.05
2023-03-19T03:35:41.176Z,4.43
2023-03-19T03:38:08.234Z,5.35
2023-03-19T03:40:36.819Z,4.13
2023-03-19T03:43:03.939Z,4.55
2023-03-19T03:45:33.506Z,5.63
2023-03-19T03:48:00.848Z,5.32
2023-03-19T03:50:27.744Z,4.95
2023-03-19T03:52:57.742Z,4.25
2023-03-19T03:55:24.727Z,5.30
2023-03-19T03:57:52.157Z,5.45
2023-03-19T04:00:19.635Z,4.80
2023-03-19T04:02:47.107Z,4.72
2023-03-19T04:05:16.465Z,5.70
2023-03-19T04:07:44.019Z,4.30
2023-03-19T04:10:11.845Z,6.00
2023-03-19T04:12:40.022Z,3.88
2023-03-19T04:15:07.973Z,4.45
2023-03-19T04:17:36.911Z,5.30
2023-03-19T04:20:04.745Z,6.20
2023-03-19T04:22:31.799Z,4.03
2023-03-19T04:24:59.736Z,4.90
2023-03-19T04:27:27.683Z,6.20
2023-03-19T04:29:54.875Z,5.38
2023-03-19T04:32:21.911Z,6.28
2023-03-19T04:34:49.233Z,10.95
2023-03-19T04:37:16.186Z,9.50
2023-03-19T04:39:49.239Z,5.82
2023-03-19T04:42:16.271Z,5.40
2023-03-19T04:45:07.006Z,5.72
2023-03-19T04:47:34.492Z,7.07
2023-03-19T04:50:01.582Z,4.85
2023-03-19T04:52:31.236Z,7.03
2023-03-19T04:54:58.186Z,8.07
2023-03-19T04:57:25.184Z,6.03
2023-03-19T04:59:54.375Z,6.72
2023-03-19T05:02:22.515Z,6.07
2023-03-19T05:04:50.403Z,6.88
2023-03-19T05:07:17.488Z,4.82
2023-03-19T05:09:46.345Z,7.07
2023-03-19T05:12:14.675Z,6.55
2023-03-19T05:14:46.560Z,6.10
2023-03-19T05:17:30.054Z,5.53
2023-03-19T05:20:12.745Z,6.85
2023-03-19T05:22:46.598Z,5.72
2023-03-19T05:25:14.982Z,6.93
2023-03-19T05:27:42.721Z,12.43
2023-03-19T05:30:18.400Z,5.07
2023-03-19T05:33:00.947Z,5.10
2023-03-19T05:38:09.553Z,5.75
2023-03-19T05:40:36.998Z,5.82
2023-03-19T05:43:18.111Z,5.63
2023-03-19T05:45:50.885Z,5.03
2023-03-19T05:48:21.252Z,5.05
2023-03-19T05:50:48.474Z,5.63
2023-03-19T05:53:20.861Z,7.55
2023-03-19T05:56:05.066Z,9.02
2023-03-19T05:58:39.712Z,5.00
2023-03-19T06:01:07.251Z,7.68
2023-03-19T06:03:34.265Z,8.32
2023-03-19T06:06:05.888Z,7.38
2023-03-19T06:08:40.932Z,5.97
2023-03-19T06:11:21.407Z,7.97
2023-03-19T06:13:57.195Z,6.03
2023-03-19T06:16:24.322Z,7.32
2023-03-19T06:18:52.821Z,5.18
2023-03-19T06:21:20.007Z,5.78
2023-03-19T06:23:46.886Z,6.47
2023-03-19T06:26:18.330Z,5.20
2023-03-19T06:28:54.552Z,6.47
2023-03-19T06:31:22.044Z,5.22
2023-03-19T06:33:55.542Z,6.00
2023-03-19T06:36:26.226Z,5.80
2023-03-19T06:38:53.565Z,7.03
2023-03-19T06:41:21.412Z,7.00
2023-03-19T06:43:49.391Z,7.65
2023-03-19T06:46:16.446Z,4.57
2023-03-19T06:48:43.503Z,5.05
2023-03-19T06:51:10.734Z,4.38
2023-03-19T06:53:37.635Z,4.78
2023-03-19T06:56:04.729Z,4.65
2023-03-19T06:58:31.985Z,5.35
2023-03-19T07:00:59.994Z,4.72
2023-03-19T07:03:26.973Z,5.93
2023-03-19T07:05:54.023Z,6.63
2023-03-19T07:08:21.040Z,5.28
2023-03-19T07:10:48.084Z,5.45
2023-03-19T07:13:15.172Z,5.82
2023-03-19T07:15:42.177Z,5.25
2023-03-19T07:18:09.172Z,4.72
2023-03-19T07:20:36.602Z,4.20
2023-03-19T07:23:03.760Z,5.53
2023-03-19T07:25:30.775Z,4.57
2023-03-19T07:27:57.843Z,5.30
2023-03-19T07:30:24.864Z,4.82
2023-03-19T07:32:51.781Z,5.43
2023-03-19T07:35:18.763Z,5.47
2023-03-19T07:37:45.966Z,4.97
2023-03-19T07:40:13.147Z,7.53
2023-03-19T07:42:40.151Z,7.55
2023-03-19T07:45:07.678Z,5.32
2023-03-19T07:47:34.633Z,5.28
2023-03-19T07:50:01.798Z,4.15
2023-03-19T07:52:30.014Z,4.47
2023-03-19T07:54:57.221Z,5.68
2023-03-19T07:57:25.832Z,7.47
2023-03-19T07:59:52.862Z,5.72
2023-03-19T08:02:22.711Z,6.38
2023-03-19T08:04:50.111Z,6.38
2023-03-19T08:07:17.188Z,7.90
2023-03-19T08:09:44.314Z,5.85
2023-03-19T08:12:11.573Z,5.70
2023-03-19T08:14:38.567Z,6.05
2023-03-19T08:17:05.794Z,6.95
2023-03-19T08:19:32.794Z,6.90
2023-03-19T08:21:59.834Z,6.82
2023-03-19T08:24:26.730Z,5.82
2023-03-19T08:26:53.707Z,5.65
2023-03-19T08:29:21.016Z,5.85
2023-03-19T08:31:47.940Z,5.70
2023-03-19T08:34:15.383Z,6.60
2023-03-19T08:36:42.380Z,5.97
2023-03-19T08:39:09.533Z,5.35
2023-03-19T08:41:36.473Z,5.30
2023-03-19T08:44:03.713Z,9.45
2023-03-19T08:46:30.830Z,7.03
2023-03-19T08:48:57.905Z,16.13
2023-03-19T08:51:26.109Z,17.80
2023-03-19T08:53:53.394Z,14.05
2023-03-19T08:56:20.460Z,25.40
2023-03-19T08:58:47.425Z,23.98
2023-03-19T09:01:14.691Z,18.48
2023-03-19T09:03:42.739Z,19.73
2023-03-19T09:06:10.546Z,23.20
2023-03-19T09:08:37.933Z,14.75
2023-03-19T09:11:05.529Z,11.38
2023-03-19T09:13:32.567Z,11.05
2023-03-19T09:15:59.495Z,26.00
2023-03-19T09:18:26.613Z,22.38
2023-03-19T09:20:54.139Z,21.67
2023-03-19T09:23:21.725Z,26.55
2023-03-19T09:25:48.908Z,44.63
2023-03-19T09:28:16.197Z,45.42
2023-03-19T09:30:43.451Z,38.22
2023-03-19T09:33:10.670Z,44.22
2023-03-19T09:35:39.760Z,30.02
2023-03-19T09:38:07.024Z,34.55
2023-03-19T09:40:39.320Z,31.83
2023-03-19T09:43:43.727Z,31.48
2023-03-19T09:46:25.445Z,33.25
2023-03-19T09:48:59.982Z,30.48
2023-03-19T09:51:43.751Z,33.35
2023-03-19T09:54:23.219Z,33.55
2023-03-19T09:56:50.248Z,29.63
2023-03-19T09:59:17.383Z,30.08
2023-03-19T10:01:47.605Z,30.88
2023-03-19T10:04:32.838Z,28.23
2023-03-19T10:07:26.951Z,27.45
2023-03-19T10:09:56.872Z,26.08
2023-03-19T10:12:42.532Z,36.55
2023-03-19T10:15:41.794Z,38.63
2023-03-19T10:18:11.981Z,34.45
2023-03-19T10:20:48.007Z,37.90
2023-03-19T10:23:55.524Z,28.50
2023-03-19T10:26:26.586Z,25.48
2023-03-19T10:29:10.698Z,30.35
2023-03-19T10:31:40.865Z,28.50
2023-03-19T10:34:10.813Z,33.22
2023-03-19T10:36:37.807Z,31.83
2023-03-19T10:39:06.978Z,26.40
2023-03-19T10:41:33.825Z,24.40
2023-03-19T10:44:03.395Z,29.80
2023-03-19T10:46:39.906Z,30.15
2023-03-19T10:49:13.502Z,34.13
2023-03-19T10:51:43.281Z,34.75
2023-03-19T10:54:22.674Z,30.52
2023-03-19T10:56:50.039Z,30.25
2023-03-19T10:59:27.112Z,34.53
2023-03-19T11:02:03.660Z,28.45
2023-03-19T11:04:32.340Z,30.83
2023-03-19T11:07:03.863Z,30.65
2023-03-19T11:09:41.675Z,29.40
2023-03-19T11:12:23.187Z,27.92
2023-03-19T11:14:54.004Z,25.13
2023-03-19T11:17:28.043Z,21.52
2023-03-19T11:19:56.832Z,15.32
2023-03-19T11:22:34.193Z,14.23
2023-03-19T11:25:20.526Z,13.25
2023-03-19T11:28:09.768Z,16.42
2023-03-19T11:30:45.390Z,17.73
2023-03-19T11:33:38.503Z,15.27
2023-03-19T11:36:20.699Z,17.80
2023-03-19T11:39:17.144Z,16.02
2023-03-19T11:42:05.800Z,15.27
2023-03-19T11:44:56.900Z,15.05
2023-03-19T11:47:48.915Z,17.52
2023-03-19T11:50:22.362Z,17.00
2023-03-19T11:53:08.164Z,13.88
2023-03-19T11:56:02.342Z,11.27
2023-03-19T11:58:58.626Z,12.20
2023-03-19T12:01:49.197Z,10.73
2023-03-19T12:04:43.171Z,9.50
2023-03-19T12:07:15.983Z,11.35
2023-03-19T12:09:57.649Z,8.82
2023-03-19T12:12:34.820Z,9.35
2023-03-19T12:15:19.840Z,7.30
2023-03-19T12:18:08.583Z,7.53
2023-03-19T12:20:58.340Z,6.80
2023-03-19T12:23:41.097Z,9.30
2023-03-19T12:26:12.222Z,8.32
2023-03-19T12:28:51.801Z,6.78
2023-03-19T12:31:46.807Z,6.45
2023-03-19T12:34:26.018Z,8.25
2023-03-19T12:37:21.496Z,5.95
2023-03-19T12:40:20.684Z,7.28
2023-03-19T12:42:47.664Z,6.38
2023-03-19T12:45:33.232Z,8.27
2023-03-19T12:48:11.304Z,7.37
2023-03-19T12:50:39.940Z,6.53
2023-03-19T12:53:11.460Z,6.88
2023-03-19T12:55:45.116Z,8.50
2023-03-19T12:58:31.314Z,6.55
2023-03-19T13:01:15.787Z,6.05
2023-03-19T13:04:04.360Z,6.07
2023-03-19T13:06:34.726Z,7.40
2023-03-19T13:09:24.401Z,10.00
2023-03-19T13:11:51.296Z,8.43
2023-03-19T13:14:24.344Z,6.78
2023-03-19T13:17:12.522Z,6.53
2023-03-19T13:19:47.497Z,5.63
2023-03-19T13:22:19.894Z,6.30
2023-03-19T13:24:46.882Z,7.40
2023-03-19T13:27:24.377Z,7.72
2023-03-19T13:30:09.911Z,7.10
2023-03-19T13:32:49.871Z,6.88
2023-03-19T13:35:37.472Z,8.63
2023-03-19T13:38:26.259Z,7.50
2023-03-19T13:40:55.621Z,8.38
2023-03-19T13:43:29.565Z,5.72
2023-03-19T13:46:42.222Z,7.22
2023-03-19T13:49:36.410Z,7.30
2023-03-19T13:52:15.696Z,6.68
2023-03-19T13:54:46.053Z,7.53
2023-03-19T13:57:18.302Z,5.97
2023-03-19T13:59:47.378Z,7.25
2023-03-19T14:02:32.864Z,5.70
2023-03-19T14:05:07.424Z,6.60
2023-03-19T14:07:38.713Z,6.45
2023-03-19T14:10:28.266Z,6.30
2023-03-19T14:13:09.049Z,6.38
2023-03-19T14:15:38.420Z,6.40
2023-03-19T14:18:13.865Z,6.25
2023-03-19T14:20:53.973Z,5.75
2023-03-19T14:23:37.665Z,5.68
2023-03-19T14:26:26.227Z,6.55
2023-03-19T14:29:02.717Z,5.95
2023-03-19T14:31:53.607Z,7.30
2023-03-19T14:34:25.868Z,5.13
2023-03-19T14:37:04.546Z,4.90
2023-03-19T14:39:33.323Z,5.28
2023-03-19T14:42:19.861Z,4.63
2023-03-19T14:45:08.579Z,5.18
2023-03-19T14:47:47.571Z,5.55
2023-03-19T14:50:42.327Z,6.65
2023-03-19T14:53:38.299Z,6.82
2023-03-19T14:56:30.878Z,8.63
2023-03-19T14:58:58.348Z,6.60
2023-03-19T15:01:28.690Z,5.80
2023-03-19T15:04:09.364Z,6.82
2023-03-19T15:06:40.935Z,6.53
2023-03-19T15:09:21.042Z,5.93
2023-03-19T15:12:06.448Z,8.95
2023-03-19T15:14:39.469Z,8.85
2023-03-19T15:17:20.776Z,13.18
2023-03-19T15:19:47.768Z,8.85
2023-03-19T15:22:16.856Z,6.15
2023-03-19T15:24:43.853Z,8.07
2023-03-19T15:27:21.235Z,6.72
2023-03-19T15:29:50.377Z,6.60
2023-03-19T15:33:04.425Z,7.00
2023-03-19T15:35:36.189Z,9.20
2023-03-19T15:38:07.785Z,13.65
2023-03-19T15:40:34.927Z,8.82
2023-03-19T15:43:05.027Z,8.55
2023-03-19T15:45:34.138Z,8.25
2023-03-19T15:48:07.751Z,21.35
2023-03-19T15:50:36.831Z,16.55
2023-03-19T15:53:07.217Z,28.05
2023-03-19T15:55:36.371Z,31.10
2023-03-19T15:58:07.134Z,20.63
2023-03-19T16:00:40.230Z,15.25
2023-03-19T16:03:07.748Z,11.80
2023-03-19T16:05:34.941Z,15.15
2023-03-19T16:08:08.695Z,17.08
2023-03-19T16:10:42.674Z,19.30
2023-03-19T16:13:43.717Z,10.20
2023-03-19T16:16:10.681Z,8.57
2023-03-19T16:18:50.586Z,9.15
2023-03-19T16:21:27.569Z,6.93
2023-03-19T16:23:59.062Z,7.20
2023-03-19T16:26:29.580Z,8.68
2023-03-19T16:29:22.702Z,7.65
2023-03-19T16:32:02.869Z,10.35
2023-03-19T16:34:46.578Z,7.32
2023-03-19T16:37:38.514Z,7.53
2023-03-19T16:40:17.531Z,9.15
2023-03-19T16:42:56.592Z,11.95
2023-03-19T16:45:27.340Z,8.43
2023-03-19T16:47:58.654Z,8.07
2023-03-19T16:50:29.784Z,10.23
2023-03-19T16:52:56.768Z,7.70
2023-03-19T16:55:26.096Z,12.00
2023-03-19T16:57:56.772Z,9.23
2023-03-19T17:00:24.701Z,8.43
2023-03-19T17:02:58.122Z,8.68
2023-03-19T17:05:26.238Z,7.70
2023-03-19T17:07:55.809Z,9.63
2023-03-19T17:10:27.464Z,11.68
2023-03-19T17:12:54.805Z,10.43
2023-03-19T17:15:27.288Z,12.18
2023-03-19T17:17:54.522Z,8.75
2023-03-19T17:20:34.321Z,12.90
2023-03-19T17:23:01.625Z,9.48
2023-03-19T17:25:29.082Z,11.05
2023-03-19T17:27:56.043Z,10.55
2023-03-19T17:30:22.995Z,10.45
2023-03-19T17:32:51.115Z,13.73
2023-03-19T17:35:19.458Z,11.43
2023-03-19T17:37:46.664Z,11.40
2023-03-19T17:40:25.137Z,12.63
2023-03-19T17:42:52.512Z,16.73
2023-03-19T17:45:27.848Z,17.13
2023-03-19T17:47:56.786Z,14.15
2023-03-19T17:50:28.770Z,14.85
2023-03-19T17:52:56.067Z,12.95
2023-03-19T17:55:24.656Z,14.70
2023-03-19T17:57:51.637Z,11.27
2023-03-19T18:00:22.905Z,10.55
2023-03-19T18:02:51.385Z,11.07
2023-03-19T18:05:23.516Z,13.85
2023-03-19T18:07:51.336Z,20.33
2023-03-19T18:10:20.080Z,25.23
2023-03-19T18:12:47.641Z,20.00
2023-03-19T18:15:14.811Z,15.07
2023-03-19T18:17:42.760Z,15.93
2023-03-19T18:20:15.743Z,15.75
2023-03-19T18:22:42.748Z,13.88
2023-03-19T18:25:17.412Z,16.58
2023-03-19T18:27:44.491Z,21.63
2023-03-19T18:30:16.567Z,13.68
2023-03-19T18:32:45.820Z,15.60
2023-03-19T18:35:21.366Z,16.52
2023-03-19T18:37:49.833Z,14.23
2023-03-19T18:40:22.582Z,15.88
2023-03-19T18:42:49.730Z,12.82
2023-03-19T18:45:17.444Z,13.50
2023-03-19T18:47:45.119Z,13.65
2023-03-19T18:50:20.328Z,11.80
2023-03-19T18:52:48.870Z,11.77
2023-03-19T18:55:15.928Z,16.00
2023-03-19T18:57:52.855Z,15.15
2023-03-19T19:00:26.320Z,13.32
2023-03-19T19:02:53.567Z,14.57
2023-03-19T19:05:27.724Z,14.70
2023-03-19T19:07:56.621Z,14.32
2023-03-19T19:10:24.484Z,13.40
2023-03-19T19:12:52.588Z,13.25
2023-03-19T19:15:29.992Z,17.17
2023-03-19T19:17:57.798Z,13.00
2023-03-19T19:20:26.594Z,12.98
2023-03-19T19:22:53.704Z,10.15
2023-03-19T19:25:29.724Z,13.40
2023-03-19T19:28:11.484Z,13.90
2023-03-19T19:30:39.097Z,10.75
2023-03-19T19:33:15.866Z,11.27
2023-03-19T19:35:42.948Z,13.68
2023-03-19T19:38:09.879Z,11.00
2023-03-19T19:40:37.134Z,9.88
2023-03-19T19:43:04.325Z,12.55
2023-03-19T19:45:37.758Z,10.32
2023-03-19T19:48:07.123Z,11.57
2023-03-19T19:50:34.374Z,10.80
2023-03-19T19:53:01.594Z,10.85
2023-03-19T19:55:28.584Z,10.95
2023-03-19T19:57:56.115Z,11.52
2023-03-19T20:00:28.622Z,11.32
2023-03-19T20:02:56.332Z,10.85
2023-03-19T20:05:24.988Z,11.70
2023-03-19T20:07:52.782Z,13.13
2023-03-19T20:10:20.603Z,9.77
2023-03-19T20:12:49.275Z,9.77
2023-03-19T20:15:21.741Z,9.25
2023-03-19T20:17:48.826Z,9.18
2023-03-19T20:20:17.838Z,12.50
2023-03-19T20:22:45.782Z,9.13
2023-03-19T20:25:13.306Z,11.07
2023-03-19T20:27:40.473Z,11.05
2023-03-19T20:30:09.102Z,11.23
2023-03-19T20:32:37.635Z,9.63
2023-03-19T20:35:05.473Z,11.50
2023-03-19T20:37:32.366Z,8.75
2023-03-19T20:39:59.436Z,10.35
2023-03-19T20:42:26.514Z,8.93
2023-03-19T20:44:55.932Z,10.55
2023-03-19T20:47:22.986Z,9.65
2023-03-19T20:49:50.189Z,10.45
2023-03-19T20:52:17.143Z,8.27
2023-03-19T20:54:44.761Z,10.82
2023-03-19T20:57:16.718Z,9.05
2023-03-19T20:59:45.899Z,10.35
2023-03-19T21:02:17.250Z,10.30
2023-03-19T21:04:47.736Z,8.60
2023-03-19T21:07:33.616Z,12.32
2023-03-19T21:10:01.333Z,9.98
2023-03-19T21:12:29.892Z,11.27
2023-03-19T21:15:00.373Z,9.55
2023-03-19T21:17:28.711Z,12.45
2023-03-19T21:19:56.763Z,11.85
2023-03-19T21:22:28.592Z,7.95
2023-03-19T21:25:06.898Z,9.30
2023-03-19T21:27:34.561Z,10.65
2023-03-19T21:30:01.500Z,9.80
2023-03-19T21:32:29.419Z,11.00
2023-03-19T21:34:56.419Z,11.07
2023-03-19T21:37:23.449Z,11.40
2023-03-19T21:39:50.805Z,10.45
2023-03-19T21:42:19.248Z,9.70
2023-03-19T21:44:46.658Z,11.65
2023-03-19T21:47:14.076Z,10.88
2023-03-19T21:49:41.328Z,15.48
2023-03-19T21:52:12.677Z,12.48
2023-03-19T21:54:40.528Z,15.13
2023-03-19T21:57:13.541Z,12.50
2023-03-19T21:59:40.891Z,11.88
2023-03-19T22:02:36.792Z,12.50
2023-03-19T22:05:16.690Z,13.35
2023-03-19T22:07:43.860Z,11.95
2023-03-19T22:10:10.977Z,13.68
2023-03-19T22:12:39.590Z,12.90
2023-03-19T22:15:07.777Z,16.30
2023-03-19T22:17:35.001Z,13.35
2023-03-19T22:20:01.997Z,15.55
2023-03-19T22:22:29.729Z,17.42
2023-03-19T22:24:59.393Z,13.85
2023-03-19T22:27:26.402Z,15.32
2023-03-19T22:29:53.337Z,14.80
2023-03-19T22:32:20.506Z,15.07
2023-03-19T22:34:47.633Z,14.07
2023-03-19T22:37:30.644Z,14.40
2023-03-19T22:39:57.656Z,15.75
2023-03-19T22:42:24.878Z,17.38
2023-03-19T22:44:51.902Z,14.02
2023-03-19T22:47:20.213Z,12.57
2023-03-19T22:49:47.300Z,16.40
2023-03-19T22:52:14.294Z,15.02
2023-03-19T22:54:41.788Z,12.43
2023-03-19T22:57:11.683Z,14.25
2023-03-19T22:59:38.596Z,11.82
2023-03-19T23:02:05.672Z,11.88
2023-03-19T23:04:33.036Z,14.18
2023-03-19T23:07:00.510Z,13.30
2023-03-19T23:09:32.288Z,15.70
2023-03-19T23:11:59.707Z,15.65
2023-03-19T23:14:30.852Z,14.65
2023-03-19T23:17:03.606Z,15.55
2023-03-19T23:19:35.045Z,12.80
2023-03-19T23:22:04.981Z,16.80
2023-03-19T23:24:32.432Z,16.67
2023-03-19T23:27:00.254Z,14.60
2023-03-19T23:29:32.616Z,15.10
2023-03-19T23:31:59.815Z,12.35
2023-03-19T23:34:26.986Z,13.95
2023-03-19T23:36:54.001Z,13.63
2023-03-19T23:39:21.250Z,15.07
2023-03-19T23:41:49.889Z,15.73
2023-03-19T23:44:18.408Z,14.95
2023-03-19T23:46:46.108Z,16.60
2023-03-19T23:49:14.125Z,14.70
2023-03-19T23:51:42.105Z,14.18
2023-03-19T23:54:38.820Z,16.15
2023-03-19T23:57:07.152Z,19.27
2023-03-19T23:59:38.425Z,15.13
